sensor_id;sensor_type;location;lat;lon;timestamp;temperature;humidity
52889;DHT22;41413;52.770;6.892;2023-05-07T00:01:20;14.50;99.90
52889;DHT22;41413;52.770;6.892;2023-05-07T00:03:47;14.50;99.90
52889;DHT22;41413;52.770;6.892;2023-05-07T00:06:14;14.50;99.90
52889;DHT22;41413;52.770;6.892;2023-05-07T00:08:41;14.50;99.90
52889;DHT22;41413;52.770;6.892;2023-05-07T00:11:08;14.40;99.90
52889;DHT22;41413;52.770;6.892;2023-05-07T00:13:35;14.40;99.90
52889;DHT22;41413;52.770;6.892;2023-05-07T00:16:02;14.30;99.90
52889;DHT22;41413;52.770;6.892;2023-05-07T00:18:29;14.30;99.90
52889;DHT22;41413;52.770;6.892;2023-05-07T00:20:56;14.30;99.90
52889;DHT22;41413;52.770;6.892;2023-05-07T00:23:23;14.20;99.90
52889;DHT22;41413;52.770;6.892;2023-05-07T00:25:50;14.20;99.90
52889;DHT22;41413;52.770;6.892;2023-05-07T00:28:16;14.20;99.90
52889;DHT22;41413;52.770;6.892;2023-05-07T00:30:43;14.20;99.90
52889;DHT22;41413;52.770;6.892;2023-05-07T00:33:10;14.10;99.90
52889;DHT22;41413;52.770;6.892;2023-05-07T00:35:37;14.10;99.90
52889;DHT22;41413;52.770;6.892;2023-05-07T00:38:03;14.00;99.90
52889;DHT22;41413;52.770;6.892;2023-05-07T00:40:30;14.00;99.90
52889;DHT22;41413;52.770;6.892;2023-05-07T00:42:57;13.90;99.90
52889;DHT22;41413;52.770;6.892;2023-05-07T00:45:28;13.90;99.90
52889;DHT22;41413;52.770;6.892;2023-05-07T00:47:57;13.90;99.90
52889;DHT22;41413;52.770;6.892;2023-05-07T00:50:24;13.80;99.90
52889;DHT22;41413;52.770;6.892;2023-05-07T00:52:51;13.80;99.90
52889;DHT22;41413;52.770;6.892;2023-05-07T00:55:18;13.60;99.90
52889;DHT22;41413;52.770;6.892;2023-05-07T00:57:45;13.60;99.90
52889;DHT22;41413;52.770;6.892;2023-05-07T01:00:12;13.60;99.90
52889;DHT22;41413;52.770;6.892;2023-05-07T01:02:40;13.50;99.90
52889;DHT22;41413;52.770;6.892;2023-05-07T01:05:13;13.40;99.90
52889;DHT22;41413;52.770;6.892;2023-05-07T01:07:42;13.30;99.90
52889;DHT22;41413;52.770;6.892;2023-05-07T01:10:10;13.30;99.90
52889;DHT22;41413;52.770;6.892;2023-05-07T01:12:39;13.30;99.90
52889;DHT22;41413;52.770;6.892;2023-05-07T01:15:08;13.20;99.90
52889;DHT22;41413;52.770;6.892;2023-05-07T01:17:40;13.20;99.90
52889;DHT22;41413;52.770;6.892;2023-05-07T01:20:08;13.20;99.90
52889;DHT22;41413;52.770;6.892;2023-05-07T01:22:37;13.20;99.90
52889;DHT22;41413;52.770;6.892;2023-05-07T01:25:05;13.10;99.90
52889;DHT22;41413;52.770;6.892;2023-05-07T01:27:32;13.00;99.90
52889;DHT22;41413;52.770;6.892;2023-05-07T01:30:00;13.00;99.90
52889;DHT22;41413;52.770;6.892;2023-05-07T01:35:04;12.90;99.90
52889;DHT22;41413;52.770;6.892;2023-05-07T01:37:32;12.90;99.90
52889;DHT22;41413;52.770;6.892;2023-05-07T01:40:00;13.00;99.90
52889;DHT22;41413;52.770;6.892;2023-05-07T01:42:31;12.90;99.90
52889;DHT22;41413;52.770;6.892;2023-05-07T01:44:58;12.80;99.90
52889;DHT22;41413;52.770;6.892;2023-05-07T01:47:25;12.70;99.90
52889;DHT22;41413;52.770;6.892;2023-05-07T01:49:52;12.70;99.90
52889;DHT22;41413;52.770;6.892;2023-05-07T01:52:19;12.70;99.90
52889;DHT22;41413;52.770;6.892;2023-05-07T01:54:46;12.60;99.90
52889;DHT22;41413;52.770;6.892;2023-05-07T01:57:13;12.70;99.90
52889;DHT22;41413;52.770;6.892;2023-05-07T01:59:39;12.60;99.90
52889;DHT22;41413;52.770;6.892;2023-05-07T02:02:06;12.50;99.90
52889;DHT22;41413;52.770;6.892;2023-05-07T02:04:33;12.50;99.90
52889;DHT22;41413;52.770;6.892;2023-05-07T02:07:00;12.50;99.90
52889;DHT22;41413;52.770;6.892;2023-05-07T02:09:26;12.50;99.90
52889;DHT22;41413;52.770;6.892;2023-05-07T02:11:53;12.50;99.90
52889;DHT22;41413;52.770;6.892;2023-05-07T02:14:20;12.50;99.90
52889;DHT22;41413;52.770;6.892;2023-05-07T02:16:47;12.50;99.90
52889;DHT22;41413;52.770;6.892;2023-05-07T02:19:13;12.50;99.90
52889;DHT22;41413;52.770;6.892;2023-05-07T02:21:40;12.40;99.90
52889;DHT22;41413;52.770;6.892;2023-05-07T02:24:07;12.40;99.90
52889;DHT22;41413;52.770;6.892;2023-05-07T02:26:34;12.40;99.90
52889;DHT22;41413;52.770;6.892;2023-05-07T02:29:00;12.40;99.90
52889;DHT22;41413;52.770;6.892;2023-05-07T02:31:27;12.30;99.90
52889;DHT22;41413;52.770;6.892;2023-05-07T02:33:54;12.40;99.90
52889;DHT22;41413;52.770;6.892;2023-05-07T02:36:20;12.20;99.90
52889;DHT22;41413;52.770;6.892;2023-05-07T02:38:47;12.30;99.90
52889;DHT22;41413;52.770;6.892;2023-05-07T02:41:14;12.20;99.90
52889;DHT22;41413;52.770;6.892;2023-05-07T02:43:41;12.30;99.90
52889;DHT22;41413;52.770;6.892;2023-05-07T02:46:08;12.20;99.90
52889;DHT22;41413;52.770;6.892;2023-05-07T02:48:35;12.20;99.90
52889;DHT22;41413;52.770;6.892;2023-05-07T02:51:03;12.10;99.90
52889;DHT22;41413;52.770;6.892;2023-05-07T02:53:31;12.10;99.90
52889;DHT22;41413;52.770;6.892;2023-05-07T02:55:59;12.10;99.90
52889;DHT22;41413;52.770;6.892;2023-05-07T02:58:26;12.10;99.90
52889;DHT22;41413;52.770;6.892;2023-05-07T03:00:53;12.10;99.90
52889;DHT22;41413;52.770;6.892;2023-05-07T03:03:23;12.10;99.90
52889;DHT22;41413;52.770;6.892;2023-05-07T03:05:50;12.10;99.90
52889;DHT22;41413;52.770;6.892;2023-05-07T03:08:17;12.10;99.90
52889;DHT22;41413;52.770;6.892;2023-05-07T03:10:44;12.00;99.90
52889;DHT22;41413;52.770;6.892;2023-05-07T03:13:10;12.00;99.90
52889;DHT22;41413;52.770;6.892;2023-05-07T03:15:37;12.00;99.90
52889;DHT22;41413;52.770;6.892;2023-05-07T03:18:04;12.00;99.90
52889;DHT22;41413;52.770;6.892;2023-05-07T03:20:31;12.00;99.90
52889;DHT22;41413;52.770;6.892;2023-05-07T03:22:58;12.00;99.90
52889;DHT22;41413;52.770;6.892;2023-05-07T03:25:24;12.00;99.90
52889;DHT22;41413;52.770;6.892;2023-05-07T03:27:51;12.00;99.90
52889;DHT22;41413;52.770;6.892;2023-05-07T03:30:18;12.10;99.90
52889;DHT22;41413;52.770;6.892;2023-05-07T03:32:45;12.00;99.90
52889;DHT22;41413;52.770;6.892;2023-05-07T03:35:12;12.00;99.90
52889;DHT22;41413;52.770;6.892;2023-05-07T03:37:39;12.00;99.90
52889;DHT22;41413;52.770;6.892;2023-05-07T03:40:06;12.00;99.90
52889;DHT22;41413;52.770;6.892;2023-05-07T03:42:34;12.00;99.90
52889;DHT22;41413;52.770;6.892;2023-05-07T03:45:00;12.00;99.90
52889;DHT22;41413;52.770;6.892;2023-05-07T03:47:27;12.00;99.90
52889;DHT22;41413;52.770;6.892;2023-05-07T03:49:54;12.00;99.90
52889;DHT22;41413;52.770;6.892;2023-05-07T03:52:21;12.00;99.90
52889;DHT22;41413;52.770;6.892;2023-05-07T03:54:53;12.00;99.90
52889;DHT22;41413;52.770;6.892;2023-05-07T03:57:20;12.00;99.90
52889;DHT22;41413;52.770;6.892;2023-05-07T03:59:47;12.00;99.90
52889;DHT22;41413;52.770;6.892;2023-05-07T04:02:13;12.00;99.90
52889;DHT22;41413;52.770;6.892;2023-05-07T04:04:40;11.90;99.90
52889;DHT22;41413;52.770;6.892;2023-05-07T04:07:07;11.90;99.90
52889;DHT22;41413;52.770;6.892;2023-05-07T04:09:33;12.00;99.90
52889;DHT22;41413;52.770;6.892;2023-05-07T04:12:00;11.90;99.90
52889;DHT22;41413;52.770;6.892;2023-05-07T04:14:27;11.90;99.90
52889;DHT22;41413;52.770;6.892;2023-05-07T04:16:54;11.90;99.90
52889;DHT22;41413;52.770;6.892;2023-05-07T04:19:21;11.90;99.90
52889;DHT22;41413;52.770;6.892;2023-05-07T04:21:48;11.90;99.90
52889;DHT22;41413;52.770;6.892;2023-05-07T04:24:14;11.90;99.90
52889;DHT22;41413;52.770;6.892;2023-05-07T04:26:41;11.90;99.90
52889;DHT22;41413;52.770;6.892;2023-05-07T04:29:08;11.90;99.90
52889;DHT22;41413;52.770;6.892;2023-05-07T04:31:34;11.90;99.90
52889;DHT22;41413;52.770;6.892;2023-05-07T04:34:01;11.80;99.90
52889;DHT22;41413;52.770;6.892;2023-05-07T04:36:28;11.80;99.90
52889;DHT22;41413;52.770;6.892;2023-05-07T04:38:55;11.80;99.90
52889;DHT22;41413;52.770;6.892;2023-05-07T04:41:22;11.90;99.90
52889;DHT22;41413;52.770;6.892;2023-05-07T04:43:49;11.90;99.90
52889;DHT22;41413;52.770;6.892;2023-05-07T04:46:15;11.90;99.90
52889;DHT22;41413;52.770;6.892;2023-05-07T04:48:42;11.90;99.90
52889;DHT22;41413;52.770;6.892;2023-05-07T04:51:09;11.80;99.90
52889;DHT22;41413;52.770;6.892;2023-05-07T04:53:36;11.90;99.90
52889;DHT22;41413;52.770;6.892;2023-05-07T04:56:03;11.90;99.90
52889;DHT22;41413;52.770;6.892;2023-05-07T04:58:30;11.90;99.90
52889;DHT22;41413;52.770;6.892;2023-05-07T05:00:59;11.90;99.90
52889;DHT22;41413;52.770;6.892;2023-05-07T05:03:26;11.90;99.90
52889;DHT22;41413;52.770;6.892;2023-05-07T05:05:53;11.90;99.90
52889;DHT22;41413;52.770;6.892;2023-05-07T05:08:20;11.90;99.90
52889;DHT22;41413;52.770;6.892;2023-05-07T05:10:46;11.90;99.90
52889;DHT22;41413;52.770;6.892;2023-05-07T05:13:15;11.90;99.90
52889;DHT22;41413;52.770;6.892;2023-05-07T05:15:42;11.90;99.90
52889;DHT22;41413;52.770;6.892;2023-05-07T05:18:09;11.90;99.90
52889;DHT22;41413;52.770;6.892;2023-05-07T05:20:35;11.90;99.90
52889;DHT22;41413;52.770;6.892;2023-05-07T05:23:02;11.90;99.90
52889;DHT22;41413;52.770;6.892;2023-05-07T05:25:29;11.90;99.90
52889;DHT22;41413;52.770;6.892;2023-05-07T05:27:56;12.00;99.90
52889;DHT22;41413;52.770;6.892;2023-05-07T05:30:23;12.00;99.90
52889;DHT22;41413;52.770;6.892;2023-05-07T05:32:50;12.10;99.90
52889;DHT22;41413;52.770;6.892;2023-05-07T05:35:16;12.10;99.90
52889;DHT22;41413;52.770;6.892;2023-05-07T05:37:43;12.10;99.90
52889;DHT22;41413;52.770;6.892;2023-05-07T05:40:10;12.20;99.90
52889;DHT22;41413;52.770;6.892;2023-05-07T05:42:37;12.20;99.90
52889;DHT22;41413;52.770;6.892;2023-05-07T05:45:04;12.20;99.90
52889;DHT22;41413;52.770;6.892;2023-05-07T05:47:32;12.20;99.90
52889;DHT22;41413;52.770;6.892;2023-05-07T05:49:59;12.20;99.90
52889;DHT22;41413;52.770;6.892;2023-05-07T05:52:26;12.20;99.90
52889;DHT22;41413;52.770;6.892;2023-05-07T05:54:53;12.40;99.90
52889;DHT22;41413;52.770;6.892;2023-05-07T05:57:20;12.30;99.90
52889;DHT22;41413;52.770;6.892;2023-05-07T05:59:47;12.40;99.90
52889;DHT22;41413;52.770;6.892;2023-05-07T06:02:13;12.40;99.90
52889;DHT22;41413;52.770;6.892;2023-05-07T06:04:41;12.40;99.90
52889;DHT22;41413;52.770;6.892;2023-05-07T06:07:09;12.50;99.90
52889;DHT22;41413;52.770;6.892;2023-05-07T06:09:36;12.50;99.90
52889;DHT22;41413;52.770;6.892;2023-05-07T06:12:02;12.60;99.90
52889;DHT22;41413;52.770;6.892;2023-05-07T06:14:29;12.70;99.90
52889;DHT22;41413;52.770;6.892;2023-05-07T06:16:56;12.70;99.90
52889;DHT22;41413;52.770;6.892;2023-05-07T06:19:23;12.70;99.90
52889;DHT22;41413;52.770;6.892;2023-05-07T06:21:50;12.70;99.90
52889;DHT22;41413;52.770;6.892;2023-05-07T06:24:17;12.70;99.90
52889;DHT22;41413;52.770;6.892;2023-05-07T06:26:43;12.70;99.90
52889;DHT22;41413;52.770;6.892;2023-05-07T06:29:10;12.70;99.90
52889;DHT22;41413;52.770;6.892;2023-05-07T06:31:37;12.70;99.90
52889;DHT22;41413;52.770;6.892;2023-05-07T06:34:04;12.60;99.90
52889;DHT22;41413;52.770;6.892;2023-05-07T06:36:31;12.60;99.90
52889;DHT22;41413;52.770;6.892;2023-05-07T06:38:58;12.80;99.90
52889;DHT22;41413;52.770;6.892;2023-05-07T06:41:24;12.60;99.90
52889;DHT22;41413;52.770;6.892;2023-05-07T06:43:52;12.70;99.90
52889;DHT22;41413;52.770;6.892;2023-05-07T06:46:19;12.70;99.90
52889;DHT22;41413;52.770;6.892;2023-05-07T06:48:45;12.70;99.90
52889;DHT22;41413;52.770;6.892;2023-05-07T06:51:12;12.70;99.90
52889;DHT22;41413;52.770;6.892;2023-05-07T06:53:39;12.60;99.90
52889;DHT22;41413;52.770;6.892;2023-05-07T06:56:06;12.70;99.90
52889;DHT22;41413;52.770;6.892;2023-05-07T06:58:32;12.70;99.90
52889;DHT22;41413;52.770;6.892;2023-05-07T07:00:59;12.60;99.90
52889;DHT22;41413;52.770;6.892;2023-05-07T07:03:26;12.60;99.90
52889;DHT22;41413;52.770;6.892;2023-05-07T07:05:54;12.70;99.90
52889;DHT22;41413;52.770;6.892;2023-05-07T07:08:22;12.70;99.90
52889;DHT22;41413;52.770;6.892;2023-05-07T07:10:49;12.80;99.90
52889;DHT22;41413;52.770;6.892;2023-05-07T07:13:18;12.80;99.90
52889;DHT22;41413;52.770;6.892;2023-05-07T07:15:45;12.80;99.90
52889;DHT22;41413;52.770;6.892;2023-05-07T07:18:12;12.80;99.90
52889;DHT22;41413;52.770;6.892;2023-05-07T07:20:39;12.90;99.90
52889;DHT22;41413;52.770;6.892;2023-05-07T07:23:05;12.80;99.90
52889;DHT22;41413;52.770;6.892;2023-05-07T07:25:32;12.80;99.90
52889;DHT22;41413;52.770;6.892;2023-05-07T07:27:59;12.90;99.90
52889;DHT22;41413;52.770;6.892;2023-05-07T07:30:26;12.90;99.90
52889;DHT22;41413;52.770;6.892;2023-05-07T07:32:53;12.90;99.90
52889;DHT22;41413;52.770;6.892;2023-05-07T07:35:20;13.00;99.90
52889;DHT22;41413;52.770;6.892;2023-05-07T07:37:48;13.10;99.90
52889;DHT22;41413;52.770;6.892;2023-05-07T07:40:16;13.30;99.90
52889;DHT22;41413;52.770;6.892;2023-05-07T07:42:43;13.50;99.90
52889;DHT22;41413;52.770;6.892;2023-05-07T07:45:10;13.70;99.90
52889;DHT22;41413;52.770;6.892;2023-05-07T07:47:37;13.80;99.90
52889;DHT22;41413;52.770;6.892;2023-05-07T07:50:04;13.90;99.90
52889;DHT22;41413;52.770;6.892;2023-05-07T07:52:32;14.00;99.90
52889;DHT22;41413;52.770;6.892;2023-05-07T07:54:58;14.00;99.90
52889;DHT22;41413;52.770;6.892;2023-05-07T07:57:25;13.90;99.90
52889;DHT22;41413;52.770;6.892;2023-05-07T07:59:52;13.80;99.90
52889;DHT22;41413;52.770;6.892;2023-05-07T08:02:18;13.80;99.90
52889;DHT22;41413;52.770;6.892;2023-05-07T08:04:45;13.90;99.90
52889;DHT22;41413;52.770;6.892;2023-05-07T08:07:12;13.90;99.90
52889;DHT22;41413;52.770;6.892;2023-05-07T08:09:39;13.90;99.90
52889;DHT22;41413;52.770;6.892;2023-05-07T08:12:07;14.00;99.90
52889;DHT22;41413;52.770;6.892;2023-05-07T08:14:34;13.90;99.90
52889;DHT22;41413;52.770;6.892;2023-05-07T08:17:02;14.00;99.90
52889;DHT22;41413;52.770;6.892;2023-05-07T08:19:29;14.00;99.90
52889;DHT22;41413;52.770;6.892;2023-05-07T08:21:56;14.00;99.90
52889;DHT22;41413;52.770;6.892;2023-05-07T08:24:23;14.10;99.90
52889;DHT22;41413;52.770;6.892;2023-05-07T08:26:49;14.20;99.90
52889;DHT22;41413;52.770;6.892;2023-05-07T08:29:16;14.30;99.90
52889;DHT22;41413;52.770;6.892;2023-05-07T08:31:43;14.30;99.90
52889;DHT22;41413;52.770;6.892;2023-05-07T08:34:10;14.40;99.90
52889;DHT22;41413;52.770;6.892;2023-05-07T08:36:36;14.50;99.90
52889;DHT22;41413;52.770;6.892;2023-05-07T08:39:03;14.60;99.90
52889;DHT22;41413;52.770;6.892;2023-05-07T08:41:30;14.60;99.90
52889;DHT22;41413;52.770;6.892;2023-05-07T08:43:59;14.90;99.90
52889;DHT22;41413;52.770;6.892;2023-05-07T08:46:31;15.20;99.90
52889;DHT22;41413;52.770;6.892;2023-05-07T08:48:58;15.50;99.90
52889;DHT22;41413;52.770;6.892;2023-05-07T08:51:25;15.80;99.90
52889;DHT22;41413;52.770;6.892;2023-05-07T08:53:52;16.10;99.90
52889;DHT22;41413;52.770;6.892;2023-05-07T08:56:18;16.40;99.90
52889;DHT22;41413;52.770;6.892;2023-05-07T08:58:48;16.50;99.90
52889;DHT22;41413;52.770;6.892;2023-05-07T09:01:16;16.60;99.90
52889;DHT22;41413;52.770;6.892;2023-05-07T09:03:45;16.60;99.90
52889;DHT22;41413;52.770;6.892;2023-05-07T09:06:12;16.90;99.90
52889;DHT22;41413;52.770;6.892;2023-05-07T09:08:39;17.30;99.90
52889;DHT22;41413;52.770;6.892;2023-05-07T09:11:06;17.90;99.90
52889;DHT22;41413;52.770;6.892;2023-05-07T09:13:32;18.60;99.90
52889;DHT22;41413;52.770;6.892;2023-05-07T09:16:10;19.50;99.90
52889;DHT22;41413;52.770;6.892;2023-05-07T09:18:41;19.90;99.90
52889;DHT22;41413;52.770;6.892;2023-05-07T09:21:15;20.20;99.90
52889;DHT22;41413;52.770;6.892;2023-05-07T09:23:42;20.30;99.90
52889;DHT22;41413;52.770;6.892;2023-05-07T09:26:08;20.30;99.90
52889;DHT22;41413;52.770;6.892;2023-05-07T09:28:42;20.10;99.90
52889;DHT22;41413;52.770;6.892;2023-05-07T09:31:10;20.10;99.90
52889;DHT22;41413;52.770;6.892;2023-05-07T09:33:38;20.20;99.90
52889;DHT22;41413;52.770;6.892;2023-05-07T09:36:07;20.60;99.90
52889;DHT22;41413;52.770;6.892;2023-05-07T09:38:35;20.70;99.90
52889;DHT22;41413;52.770;6.892;2023-05-07T09:41:06;20.90;99.90
52889;DHT22;41413;52.770;6.892;2023-05-07T09:43:37;20.80;99.90
52889;DHT22;41413;52.770;6.892;2023-05-07T09:46:16;20.90;99.90
52889;DHT22;41413;52.770;6.892;2023-05-07T09:48:44;20.70;99.90
52889;DHT22;41413;52.770;6.892;2023-05-07T09:51:35;20.50;99.90
52889;DHT22;41413;52.770;6.892;2023-05-07T09:54:04;20.70;99.90
52889;DHT22;41413;52.770;6.892;2023-05-07T09:56:31;20.80;99.90
52889;DHT22;41413;52.770;6.892;2023-05-07T09:59:03;21.00;99.90
52889;DHT22;41413;52.770;6.892;2023-05-07T10:01:31;21.50;99.90
52889;DHT22;41413;52.770;6.892;2023-05-07T10:03:59;21.90;99.90
52889;DHT22;41413;52.770;6.892;2023-05-07T10:06:26;21.80;99.90
52889;DHT22;41413;52.770;6.892;2023-05-07T10:08:53;22.30;99.90
52889;DHT22;41413;52.770;6.892;2023-05-07T10:11:22;22.40;99.90
52889;DHT22;41413;52.770;6.892;2023-05-07T10:13:50;22.20;99.90
52889;DHT22;41413;52.770;6.892;2023-05-07T10:16:18;21.70;99.90
52889;DHT22;41413;52.770;6.892;2023-05-07T10:18:46;21.40;99.90
52889;DHT22;41413;52.770;6.892;2023-05-07T10:23:50;21.70;99.90
52889;DHT22;41413;52.770;6.892;2023-05-07T10:26:21;22.00;99.90
52889;DHT22;41413;52.770;6.892;2023-05-07T10:28:52;22.50;99.90
52889;DHT22;41413;52.770;6.892;2023-05-07T10:34:24;22.60;99.90
52889;DHT22;41413;52.770;6.892;2023-05-07T10:36:53;22.60;99.90
52889;DHT22;41413;52.770;6.892;2023-05-07T10:39:21;22.70;99.90
52889;DHT22;41413;52.770;6.892;2023-05-07T10:41:48;22.40;99.90
52889;DHT22;41413;52.770;6.892;2023-05-07T10:44:29;22.40;99.90
52889;DHT22;41413;52.770;6.892;2023-05-07T10:49:36;22.60;99.90
52889;DHT22;41413;52.770;6.892;2023-05-07T10:52:23;22.60;99.90
52889;DHT22;41413;52.770;6.892;2023-05-07T10:57:45;22.80;99.90
52889;DHT22;41413;52.770;6.892;2023-05-07T11:03:07;22.60;99.90
52889;DHT22;41413;52.770;6.892;2023-05-07T11:05:35;22.40;99.90
52889;DHT22;41413;52.770;6.892;2023-05-07T11:08:04;22.40;99.90
52889;DHT22;41413;52.770;6.892;2023-05-07T11:10:51;22.50;99.90
52889;DHT22;41413;52.770;6.892;2023-05-07T11:13:40;22.20;99.90
52889;DHT22;41413;52.770;6.892;2023-05-07T11:16:17;22.30;99.90
52889;DHT22;41413;52.770;6.892;2023-05-07T11:18:48;22.20;99.90
52889;DHT22;41413;52.770;6.892;2023-05-07T11:23:59;21.90;99.90
52889;DHT22;41413;52.770;6.892;2023-05-07T11:26:27;22.10;99.90
52889;DHT22;41413;52.770;6.892;2023-05-07T11:28:55;21.90;99.90
52889;DHT22;41413;52.770;6.892;2023-05-07T11:31:24;21.70;99.90
52889;DHT22;41413;52.770;6.892;2023-05-07T11:33:53;21.80;99.90
52889;DHT22;41413;52.770;6.892;2023-05-07T11:36:22;21.80;99.90
52889;DHT22;41413;52.770;6.892;2023-05-07T11:38:49;21.80;99.90
52889;DHT22;41413;52.770;6.892;2023-05-07T11:41:16;21.60;99.90
52889;DHT22;41413;52.770;6.892;2023-05-07T11:43:57;21.60;99.90
52889;DHT22;41413;52.770;6.892;2023-05-07T11:46:24;21.50;99.90
52889;DHT22;41413;52.770;6.892;2023-05-07T11:48:51;21.60;99.90
52889;DHT22;41413;52.770;6.892;2023-05-07T11:51:23;21.50;99.90
52889;DHT22;41413;52.770;6.892;2023-05-07T11:53:50;21.50;99.90
52889;DHT22;41413;52.770;6.892;2023-05-07T11:56:17;21.50;99.90
52889;DHT22;41413;52.770;6.892;2023-05-07T11:58:46;21.50;99.90
52889;DHT22;41413;52.770;6.892;2023-05-07T12:01:13;21.30;99.90
52889;DHT22;41413;52.770;6.892;2023-05-07T12:03:42;21.40;99.90
52889;DHT22;41413;52.770;6.892;2023-05-07T12:06:10;21.40;99.90
52889;DHT22;41413;52.770;6.892;2023-05-07T12:08:39;21.40;99.90
52889;DHT22;41413;52.770;6.892;2023-05-07T12:11:25;21.30;99.90
52889;DHT22;41413;52.770;6.892;2023-05-07T12:13:54;21.10;99.90
52889;DHT22;41413;52.770;6.892;2023-05-07T12:16:25;20.90;99.90
52889;DHT22;41413;52.770;6.892;2023-05-07T12:18:53;20.90;99.90
52889;DHT22;41413;52.770;6.892;2023-05-07T12:21:22;20.90;99.90
52889;DHT22;41413;52.770;6.892;2023-05-07T12:23:49;20.80;99.90
52889;DHT22;41413;52.770;6.892;2023-05-07T12:26:16;21.00;99.90
52889;DHT22;41413;52.770;6.892;2023-05-07T12:28:42;21.00;99.90
52889;DHT22;41413;52.770;6.892;2023-05-07T12:31:09;20.90;99.90
52889;DHT22;41413;52.770;6.892;2023-05-07T12:33:37;20.90;99.90
52889;DHT22;41413;52.770;6.892;2023-05-07T12:36:06;20.80;99.90
52889;DHT22;41413;52.770;6.892;2023-05-07T12:38:38;20.80;99.90
52889;DHT22;41413;52.770;6.892;2023-05-07T12:41:08;20.90;99.90
52889;DHT22;41413;52.770;6.892;2023-05-07T12:43:35;20.90;99.90
52889;DHT22;41413;52.770;6.892;2023-05-07T12:46:07;20.90;99.90
52889;DHT22;41413;52.770;6.892;2023-05-07T12:48:37;21.10;99.90
52889;DHT22;41413;52.770;6.892;2023-05-07T12:51:05;21.20;99.90
52889;DHT22;41413;52.770;6.892;2023-05-07T12:53:32;21.10;99.90
52889;DHT22;41413;52.770;6.892;2023-05-07T12:55:59;21.10;99.90
52889;DHT22;41413;52.770;6.892;2023-05-07T12:58:28;21.10;99.90
52889;DHT22;41413;52.770;6.892;2023-05-07T13:00:58;21.10;99.90
52889;DHT22;41413;52.770;6.892;2023-05-07T13:03:33;21.10;99.90
52889;DHT22;41413;52.770;6.892;2023-05-07T13:06:18;21.00;99.90
52889;DHT22;41413;52.770;6.892;2023-05-07T13:08:45;20.90;99.90
52889;DHT22;41413;52.770;6.892;2023-05-07T13:11:12;20.90;99.90
52889;DHT22;41413;52.770;6.892;2023-05-07T13:13:40;20.80;99.90
52889;DHT22;41413;52.770;6.892;2023-05-07T13:16:09;20.80;99.90
52889;DHT22;41413;52.770;6.892;2023-05-07T13:18:38;20.60;99.90
52889;DHT22;41413;52.770;6.892;2023-05-07T13:21:05;20.50;99.90
52889;DHT22;41413;52.770;6.892;2023-05-07T13:23:31;20.50;99.90
52889;DHT22;41413;52.770;6.892;2023-05-07T13:25:58;20.30;99.90
52889;DHT22;41413;52.770;6.892;2023-05-07T13:28:29;20.40;99.90
52889;DHT22;41413;52.770;6.892;2023-05-07T13:30:56;20.30;99.90
52889;DHT22;41413;52.770;6.892;2023-05-07T13:33:23;20.30;99.90
52889;DHT22;41413;52.770;6.892;2023-05-07T13:35:50;20.30;99.90
52889;DHT22;41413;52.770;6.892;2023-05-07T13:38:17;20.30;99.90
52889;DHT22;41413;52.770;6.892;2023-05-07T13:40:44;20.20;99.90
52889;DHT22;41413;52.770;6.892;2023-05-07T13:43:11;20.20;99.90
52889;DHT22;41413;52.770;6.892;2023-05-07T13:45:37;20.40;99.90
52889;DHT22;41413;52.770;6.892;2023-05-07T13:48:04;20.50;99.90
52889;DHT22;41413;52.770;6.892;2023-05-07T13:50:31;20.80;99.90
52889;DHT22;41413;52.770;6.892;2023-05-07T13:52:58;20.90;99.90
52889;DHT22;41413;52.770;6.892;2023-05-07T13:55:25;20.90;99.90
52889;DHT22;41413;52.770;6.892;2023-05-07T13:57:59;20.90;99.90
52889;DHT22;41413;52.770;6.892;2023-05-07T14:00:27;21.10;99.90
52889;DHT22;41413;52.770;6.892;2023-05-07T14:02:55;21.10;99.90
52889;DHT22;41413;52.770;6.892;2023-05-07T14:05:22;21.00;99.90
52889;DHT22;41413;52.770;6.892;2023-05-07T14:07:52;21.00;99.90
52889;DHT22;41413;52.770;6.892;2023-05-07T14:10:19;20.90;99.90
52889;DHT22;41413;52.770;6.892;2023-05-07T14:12:47;20.80;99.90
52889;DHT22;41413;52.770;6.892;2023-05-07T14:15:14;20.80;99.90
52889;DHT22;41413;52.770;6.892;2023-05-07T14:17:41;20.70;99.90
52889;DHT22;41413;52.770;6.892;2023-05-07T14:20:08;20.60;99.90
52889;DHT22;41413;52.770;6.892;2023-05-07T14:22:37;20.60;99.90
52889;DHT22;41413;52.770;6.892;2023-05-07T14:25:04;20.40;99.90
52889;DHT22;41413;52.770;6.892;2023-05-07T14:27:33;20.30;99.90
52889;DHT22;41413;52.770;6.892;2023-05-07T14:29:59;20.20;99.90
52889;DHT22;41413;52.770;6.892;2023-05-07T14:32:26;20.20;99.90
52889;DHT22;41413;52.770;6.892;2023-05-07T14:34:53;20.00;99.90
52889;DHT22;41413;52.770;6.892;2023-05-07T14:37:20;20.00;99.90
52889;DHT22;41413;52.770;6.892;2023-05-07T14:39:46;19.90;99.90
52889;DHT22;41413;52.770;6.892;2023-05-07T14:42:17;19.80;99.90
52889;DHT22;41413;52.770;6.892;2023-05-07T14:44:43;19.70;99.90
52889;DHT22;41413;52.770;6.892;2023-05-07T14:47:12;19.60;99.90
52889;DHT22;41413;52.770;6.892;2023-05-07T14:49:39;19.50;99.90
52889;DHT22;41413;52.770;6.892;2023-05-07T14:52:07;19.30;99.90
52889;DHT22;41413;52.770;6.892;2023-05-07T14:54:37;19.10;99.90
52889;DHT22;41413;52.770;6.892;2023-05-07T14:57:05;19.20;99.90
52889;DHT22;41413;52.770;6.892;2023-05-07T14:59:32;19.10;99.90
52889;DHT22;41413;52.770;6.892;2023-05-07T15:01:59;19.10;99.90
52889;DHT22;41413;52.770;6.892;2023-05-07T15:04:28;19.00;99.90
52889;DHT22;41413;52.770;6.892;2023-05-07T15:06:55;19.00;99.90
52889;DHT22;41413;52.770;6.892;2023-05-07T15:09:22;19.00;99.90
52889;DHT22;41413;52.770;6.892;2023-05-07T15:11:49;19.10;99.90
52889;DHT22;41413;52.770;6.892;2023-05-07T15:14:15;19.10;99.90
52889;DHT22;41413;52.770;6.892;2023-05-07T15:16:42;19.20;99.90
52889;DHT22;41413;52.770;6.892;2023-05-07T15:19:09;19.20;99.90
52889;DHT22;41413;52.770;6.892;2023-05-07T15:21:36;19.20;99.90
52889;DHT22;41413;52.770;6.892;2023-05-07T15:24:02;19.10;99.90
52889;DHT22;41413;52.770;6.892;2023-05-07T15:26:29;19.20;99.90
52889;DHT22;41413;52.770;6.892;2023-05-07T15:28:56;19.30;99.90
52889;DHT22;41413;52.770;6.892;2023-05-07T15:31:24;19.20;99.90
52889;DHT22;41413;52.770;6.892;2023-05-07T15:33:52;19.30;99.90
52889;DHT22;41413;52.770;6.892;2023-05-07T15:36:20;19.30;99.90
52889;DHT22;41413;52.770;6.892;2023-05-07T15:38:46;19.30;99.90
52889;DHT22;41413;52.770;6.892;2023-05-07T15:41:13;19.40;99.90
52889;DHT22;41413;52.770;6.892;2023-05-07T15:43:45;19.40;99.90
52889;DHT22;41413;52.770;6.892;2023-05-07T15:46:20;19.40;99.90
52889;DHT22;41413;52.770;6.892;2023-05-07T15:48:47;19.50;99.90
52889;DHT22;41413;52.770;6.892;2023-05-07T15:51:14;19.40;99.90
52889;DHT22;41413;52.770;6.892;2023-05-07T15:53:41;19.40;99.90